MHLC/LCE METAR and TAF weather

Enter ICAO airport designator
Station Type Date Time Source
MHLC METAR 2018/12/17 03:00 UTC NOAA

MHLC 170300Z 21006KT 9999 SCT024 OVC070 21/19 Q1021 A3015 NOSIG


Station Type Date Time Source
MHLC Decoded METAR 2018/12/17 03:00 UTC NOAA

La Ceiba Airport , Honduras (MHLC) 15-44N 086-52W 26M
Dec 16, 2018 - 10:00 PM EST / 2018.12.17 0300 UTC
Wind: from the SSW (210 degrees) at 7 MPH (6 KT):0
Visibility: greater than 7 mile(s):0
Sky conditions: overcast
Temperature: 69 F (21 C)
Dew Point: 66 F (19 C)
Relative Humidity: 88%
Pressure (altimeter): 30.15 in. Hg (1020 hPa)
ob: MHLC 170300Z 21006KT 9999 SCT024 OVC070 21/19 Q1021 A3015 NOSIG
cycle: 3

Station Type Date Time Source
MHLC TAF 2018/12/17 06:30 UTC NOAA

TAF MHLC 170425Z 1706/1806 21012KT 5000 -RA SCT022 OVC070 TX23/1718Z TN17/1712Z
TEMPO 1710/1715 22010G20KT 2000 RA FEW006 SCT022TCU OVC070
BECMG 1723/1801 21010KT 4000 -RA FEW010 SCT022TCU BKN070


Example: see airport list